Jaupaci, Brazil
Current Conditions -  °F | °C
As of 7:00 PM on Saturday 20 Dec 2014 (Local Time) from SBBW Reporting Station
Broken Clouds Broken Clouds  
Wind Chill: 79°   Ceiling: 7000
Heat Index: 82°   Visibility: 6mi
Dew Point: 73°   Wind: 5mph
Humidity: 83%   Direction: 240°WSW
Pressure: 29.83"   Gusts: NA
Location:  16.18°S, 50.95°W
Report Text: SBBW 202100Z 24004KT 9999 SCT020 BKN070 26/23 Q1010
Loading
Personal Weather Stations






























Interactive Weather Map New forecast layout! Learn more

10-Day Weather Forecast

Advertisements
Track Severe Weather on mobile